Terminal Aerodrome Forecast
Issued by NWS Bismarck, ND

Home | Current Version | Previous Version | Text Only | Print | Product List | Glossary On
Versions: 1 2 3 4 5 6 7 8 9 10 11 12 13 14
000
FTUS43 KBIS 020500
TAFISN
TAF
KISN 020520Z 0206/0306 26005KT P6SM SCT090
     FM021800 27014KT P6SM SCT100=

USA.gov is the U.S. government's official web portal to all federal, state and local government web resources and services.